Date,TemperatureHighF,TemperatureAvgF,TemperatureLowF,DewpointHighF,DewpointAvgF,DewpointLowF,HumidityHigh,HumidityAvg,HumidityLow,PressureMaxIn,PressureMinIn,WindSpeedMaxMPH,WindSpeedAvgMPH,GustSpeedMaxMPH,PrecipitationSumIn
2013-4-1,76,64,56,64,59,54,98,84,54,29.93,29.83,12,1,12,0.16
2013-4-2,72,57,47,54,48,45,95,73,42,30.12,29.93,11,1,12,0.00
2013-4-3,70,57,46,55,48,44,98,75,48,30.23,30.05,10,1,10,0.00
2013-4-4,56,53,48,55,49,44,97,89,73,30.22,29.83,10,1,12,0.49
2013-4-5,59,50,44,50,46,42,97,88,71,30.02,29.85,9,1,10,0.09
2013-4-6,74,56,41,52,46,41,98,72,34,30.22,30.01,14,1,14,0.09
2013-4-7,76,60,47,61,54,46,98,81,54,30.23,30.12,12,1,15,0.00
2013-4-8,81,65,50,63,58,49,98,80,49,30.17,30.09,12,1,15,0.00
2013-4-9,83,69,55,67,61,54,98,79,47,30.20,30.10,9,1,10,0.00
2013-4-10,83,69,56,68,61,56,99,79,47,30.15,30.00,13,1,14,0.00
2013-4-11,83,71,59,72,66,58,98,87,68,30.00,29.82,14,1,17,0.00
2013-4-12,81,72,67,74,70,66,99,93,77,29.84,29.71,16,1,16,0.70
2013-4-13,76,64,50,66,53,48,98,72,39,30.01,29.81,7,0,9,0.29
2013-4-14,72,62,51,63,58,50,98,87,65,30.07,29.93,10,1,11,0.03
2013-4-15,71,66,60,67,64,60,98,93,81,30.14,29.86,10,0,11,0.08
2013-4-16,80,69,58,68,62,57,99,80,56,30.23,30.13,9,0,9,0.03
2013-4-17,84,69,57,69,62,56,99,82,54,30.22,30.11,9,1,9,0.00
2013-4-18,82,70,61,70,65,60,98,84,60,30.13,30.01,14,1,14,0.01
2013-4-19,82,72,67,73,69,65,98,89,73,30.01,29.81,16,1,18,0.59
2013-4-20,66,56,46,65,50,43,97,84,56,30.23,29.91,8,1,8,0.45
2013-4-21,70,56,43,54,48,42,96,74,50,30.32,30.22,12,2,17,0.00
2013-4-22,69,58,49,54,47,37,81,66,56,30.29,30.11,11,2,11,0.00
2013-4-23,66,58,53,57,52,48,96,81,69,30.20,30.11,8,1,9,0.00
2013-4-24,79,64,47,63,56,46,98,78,47,30.17,30.03,10,1,10,0.00
2013-4-25,81,68,60,69,64,59,98,88,60,30.21,30.06,7,0,7,0.54
2013-4-26,77,66,55,62,54,42,98,70,31,30.35,30.20,11,1,11,0.01
2013-4-27,74,63,53,63,53,46,96,74,39,30.33,30.21,8,0,8,0.01
2013-4-28,76,66,55,66,61,51,96,84,68,30.22,30.02,15,1,15,0.00
2013-4-29,80,68,62,70,65,61,97,92,68,30.04,29.93,9,0,9,1.42
2013-4-30,75,66,62,68,64,60,98,93,77,30.08,29.94,6,0,7,0.04